Hoolehua, HI

4:52 AM HST on August 31, 2016 (GMT -1000)
Molokai | | Change Station

Elev 449 ft 21.15 °N, 157.10 °W | Updated 22 minutes ago

Light Rain
Light Rain Mist
77 °F
Feels Like 77 °F
N
8
Wind Variable Wind from NE
Gusts 20 mph

Today
High -- | Low -- °F
--% Chance of Precip.
Yesterday
High -- | Low -- °F
Precip. -- in
Pressure 29.95 in
Visibility 6.0 miles
Clouds Few 800 ft
Scattered Clouds 1500 ft
Mostly Cloudy 2900 ft
Dew Point 73 °F
Humidity 88%
Rainfall 0.01 in
Snow Depth Not available.
6:11 AM 6:44 PM
Waning Crescent, 1% visible
SPECI PHMK 311430Z AUTO 04007G17KT 6SM -RA BR FEW008 SCT015 BKN029 25/23 A2995 RMK AO2 RAB03 P0000 T02500228 TSNO
Pressure 29.95 in
Visibility 6.0 miles
Clouds Few 800 ft
Scattered Clouds 1500 ft
Mostly Cloudy 2900 ft
Dew Point 73 °F
Humidity 88%
Rainfall 0.01 in
Snow Depth Not available.
6:11 AM 6:44 PM
Waning Crescent, 1% visible
SPECI PHMK 311430Z AUTO 04007G17KT 6SM -RA BR FEW008 SCT015 BKN029 25/23 A2995 RMK AO2 RAB03 P0000 T02500228 TSNO
Hurricane Madeline will be moving dangerously close to Hawaii's Big Island on Wednesday and Wednesday night. As of Tuesday night, a hurricane warning was in effect for Hawaii's Big Island, which means hurricane conditions are expected somewhere within the warning area. Tropical storm watches were in effect for Maui, Molokai, and Lanai.

10-Day Weather Forecast

Almanac

Astronomy

Aug. 31, 2016 Rise Set
Actual Time
Civil Twilight
Nautical Twilight
Astronomical Twilight
Moon
Length of Visible Light
Length of Day
Tomorrow will be .
, % of the Moon is Illuminated

Today's Extremes

State Highs State Lows

Community

WunderPhotos

Upload Photos

1,936,093 photos uploaded!

WunderBlog® & News

Nearby

Air Quality

  Air Quality AQ Index Pollutant
Not available.

Snow Depth

Station Depth Elevation

Earthquake Activity

City Distance Mag. Time & Date
Minimum magnitude displayed is 2.5.

Coastal Water Temperatures

Place Temperature

Stations

Nearby Weather Stations

Station Location Temp. Windchill Dew Point Humidity Wind Precip. Elev Updated Type
                   

Watches & Warnings

There are currently no watches in effect.